sensor_id;sensor_type;location;lat;lon;timestamp;temperature;humidity
47520;DHT22;33252;48.122;11.538;2023-03-23T00:02:11;11.50;85.40
47520;DHT22;33252;48.122;11.538;2023-03-23T00:04:37;11.50;85.50
47520;DHT22;33252;48.122;11.538;2023-03-23T00:07:02;11.50;86.20
47520;DHT22;33252;48.122;11.538;2023-03-23T00:09:28;11.50;85.70
47520;DHT22;33252;48.122;11.538;2023-03-23T00:11:55;11.40;85.80
47520;DHT22;33252;48.122;11.538;2023-03-23T00:14:23;11.50;85.90
47520;DHT22;33252;48.122;11.538;2023-03-23T00:16:50;11.40;86.00
47520;DHT22;33252;48.122;11.538;2023-03-23T00:19:17;11.40;86.40
47520;DHT22;33252;48.122;11.538;2023-03-23T00:21:45;11.40;86.30
47520;DHT22;33252;48.122;11.538;2023-03-23T00:24:15;11.50;86.30
47520;DHT22;33252;48.122;11.538;2023-03-23T00:26:43;11.40;86.70
47520;DHT22;33252;48.122;11.538;2023-03-23T00:29:20;11.30;86.80
47520;DHT22;33252;48.122;11.538;2023-03-23T00:31:47;11.30;86.80
47520;DHT22;33252;48.122;11.538;2023-03-23T00:34:18;11.30;86.90
47520;DHT22;33252;48.122;11.538;2023-03-23T00:36:46;11.30;87.00
47520;DHT22;33252;48.122;11.538;2023-03-23T00:39:12;11.40;86.90
47520;DHT22;33252;48.122;11.538;2023-03-23T00:41:38;11.40;86.80
47520;DHT22;33252;48.122;11.538;2023-03-23T00:44:04;11.40;87.00
47520;DHT22;33252;48.122;11.538;2023-03-23T00:46:30;11.40;86.70
47520;DHT22;33252;48.122;11.538;2023-03-23T00:48:56;11.40;87.00
47520;DHT22;33252;48.122;11.538;2023-03-23T00:51:23;11.40;87.10
47520;DHT22;33252;48.122;11.538;2023-03-23T00:53:49;11.50;86.90
47520;DHT22;33252;48.122;11.538;2023-03-23T00:56:15;11.40;87.00
47520;DHT22;33252;48.122;11.538;2023-03-23T00:58:41;11.40;87.00
47520;DHT22;33252;48.122;11.538;2023-03-23T01:01:07;11.50;87.10
47520;DHT22;33252;48.122;11.538;2023-03-23T01:03:33;11.40;87.10
47520;DHT22;33252;48.122;11.538;2023-03-23T01:06:08;11.50;87.10
47520;DHT22;33252;48.122;11.538;2023-03-23T01:08:38;11.40;87.00
47520;DHT22;33252;48.122;11.538;2023-03-23T01:11:14;11.40;87.30
47520;DHT22;33252;48.122;11.538;2023-03-23T01:13:42;11.40;87.20
47520;DHT22;33252;48.122;11.538;2023-03-23T01:16:09;11.40;87.30
47520;DHT22;33252;48.122;11.538;2023-03-23T01:18:36;11.40;87.30
47520;DHT22;33252;48.122;11.538;2023-03-23T01:21:10;11.40;87.40
47520;DHT22;33252;48.122;11.538;2023-03-23T01:23:36;11.40;87.30
47520;DHT22;33252;48.122;11.538;2023-03-23T01:26:13;11.50;87.50
47520;DHT22;33252;48.122;11.538;2023-03-23T01:28:40;11.50;87.70
47520;DHT22;33252;48.122;11.538;2023-03-23T01:31:17;11.40;87.50
47520;DHT22;33252;48.122;11.538;2023-03-23T01:33:44;11.40;88.10
47520;DHT22;33252;48.122;11.538;2023-03-23T01:36:13;11.30;87.90
47520;DHT22;33252;48.122;11.538;2023-03-23T01:38:39;11.40;87.90
47520;DHT22;33252;48.122;11.538;2023-03-23T01:41:06;11.50;87.70
47520;DHT22;33252;48.122;11.538;2023-03-23T01:43:31;11.40;88.00
47520;DHT22;33252;48.122;11.538;2023-03-23T01:45:58;11.40;87.90
47520;DHT22;33252;48.122;11.538;2023-03-23T01:48:32;11.30;88.70
47520;DHT22;33252;48.122;11.538;2023-03-23T01:51:11;11.20;88.40
47520;DHT22;33252;48.122;11.538;2023-03-23T01:53:43;11.30;88.80
47520;DHT22;33252;48.122;11.538;2023-03-23T01:56:13;11.10;89.00
47520;DHT22;33252;48.122;11.538;2023-03-23T01:58:40;11.10;89.10
47520;DHT22;33252;48.122;11.538;2023-03-23T02:01:09;11.00;89.00
47520;DHT22;33252;48.122;11.538;2023-03-23T02:03:38;11.00;89.00
47520;DHT22;33252;48.122;11.538;2023-03-23T02:06:05;11.00;89.30
47520;DHT22;33252;48.122;11.538;2023-03-23T02:08:32;11.10;89.20
47520;DHT22;33252;48.122;11.538;2023-03-23T02:10:59;11.10;89.70
47520;DHT22;33252;48.122;11.538;2023-03-23T02:13:25;11.10;88.80
47520;DHT22;33252;48.122;11.538;2023-03-23T02:24:03;10.90;90.00
47520;DHT22;33252;48.122;11.538;2023-03-23T02:31:44;11.00;89.90
47520;DHT22;33252;48.122;11.538;2023-03-23T02:36:58;10.90;89.70
47520;DHT22;33252;48.122;11.538;2023-03-23T02:39:40;10.80;90.00
47520;DHT22;33252;48.122;11.538;2023-03-23T02:42:09;10.80;90.10
47520;DHT22;33252;48.122;11.538;2023-03-23T02:44:37;10.90;89.90
47520;DHT22;33252;48.122;11.538;2023-03-23T02:47:08;10.80;89.90
47520;DHT22;33252;48.122;11.538;2023-03-23T02:49:37;10.90;89.80
47520;DHT22;33252;48.122;11.538;2023-03-23T02:52:08;11.00;89.90
47520;DHT22;33252;48.122;11.538;2023-03-23T02:54:35;11.00;89.40
47520;DHT22;33252;48.122;11.538;2023-03-23T02:57:01;10.90;89.70
47520;DHT22;33252;48.122;11.538;2023-03-23T02:59:28;10.90;89.90
47520;DHT22;33252;48.122;11.538;2023-03-23T03:04:42;10.90;90.00
47520;DHT22;33252;48.122;11.538;2023-03-23T03:07:17;10.90;89.90
47520;DHT22;33252;48.122;11.538;2023-03-23T03:09:57;10.90;90.00
47520;DHT22;33252;48.122;11.538;2023-03-23T03:12:32;10.80;89.90
47520;DHT22;33252;48.122;11.538;2023-03-23T03:15:43;10.70;90.00
47520;DHT22;33252;48.122;11.538;2023-03-23T03:18:16;10.80;89.90
47520;DHT22;33252;48.122;11.538;2023-03-23T03:20:48;10.80;90.00
47520;DHT22;33252;48.122;11.538;2023-03-23T03:23:16;10.70;90.10
47520;DHT22;33252;48.122;11.538;2023-03-23T03:25:44;10.80;90.00
47520;DHT22;33252;48.122;11.538;2023-03-23T03:28:18;10.80;90.00
47520;DHT22;33252;48.122;11.538;2023-03-23T03:30:58;10.80;90.00
47520;DHT22;33252;48.122;11.538;2023-03-23T03:33:26;10.70;90.10
47520;DHT22;33252;48.122;11.538;2023-03-23T03:35:57;10.70;90.20
47520;DHT22;33252;48.122;11.538;2023-03-23T03:38:24;10.70;90.20
47520;DHT22;33252;48.122;11.538;2023-03-23T03:40:51;10.70;90.20
47520;DHT22;33252;48.122;11.538;2023-03-23T03:43:16;10.70;90.30
47520;DHT22;33252;48.122;11.538;2023-03-23T03:45:42;10.70;90.20
47520;DHT22;33252;48.122;11.538;2023-03-23T03:48:08;10.70;90.20
47520;DHT22;33252;48.122;11.538;2023-03-23T03:50:34;10.70;90.20
47520;DHT22;33252;48.122;11.538;2023-03-23T03:53:00;10.70;90.20
47520;DHT22;33252;48.122;11.538;2023-03-23T03:55:26;10.60;90.20
47520;DHT22;33252;48.122;11.538;2023-03-23T03:57:56;10.60;90.30
47520;DHT22;33252;48.122;11.538;2023-03-23T04:00:22;10.70;90.60
47520;DHT22;33252;48.122;11.538;2023-03-23T04:02:49;10.60;90.40
47520;DHT22;33252;48.122;11.538;2023-03-23T04:05:22;10.70;90.20
47520;DHT22;33252;48.122;11.538;2023-03-23T04:07:48;10.80;90.20
47520;DHT22;33252;48.122;11.538;2023-03-23T04:10:20;10.70;90.20
47520;DHT22;33252;48.122;11.538;2023-03-23T04:12:48;10.70;90.30
47520;DHT22;33252;48.122;11.538;2023-03-23T04:15:13;10.70;90.40
47520;DHT22;33252;48.122;11.538;2023-03-23T04:17:39;10.70;90.50
47520;DHT22;33252;48.122;11.538;2023-03-23T04:20:07;10.70;90.30
47520;DHT22;33252;48.122;11.538;2023-03-23T04:22:38;10.80;90.20
47520;DHT22;33252;48.122;11.538;2023-03-23T04:25:04;10.70;90.40
47520;DHT22;33252;48.122;11.538;2023-03-23T04:27:32;10.70;90.40
47520;DHT22;33252;48.122;11.538;2023-03-23T04:29:58;10.70;90.30
47520;DHT22;33252;48.122;11.538;2023-03-23T04:32:27;10.80;90.40
47520;DHT22;33252;48.122;11.538;2023-03-23T04:34:58;10.80;90.30
47520;DHT22;33252;48.122;11.538;2023-03-23T04:37:26;10.70;90.40
47520;DHT22;33252;48.122;11.538;2023-03-23T04:39:57;10.60;90.50
47520;DHT22;33252;48.122;11.538;2023-03-23T04:42:30;10.50;90.70
47520;DHT22;33252;48.122;11.538;2023-03-23T04:44:57;10.60;90.60
47520;DHT22;33252;48.122;11.538;2023-03-23T04:47:24;10.60;90.70
47520;DHT22;33252;48.122;11.538;2023-03-23T04:49:51;10.70;90.60
47520;DHT22;33252;48.122;11.538;2023-03-23T04:52:20;10.70;90.70
47520;DHT22;33252;48.122;11.538;2023-03-23T04:54:46;10.60;90.70
47520;DHT22;33252;48.122;11.538;2023-03-23T04:57:12;10.60;90.70
47520;DHT22;33252;48.122;11.538;2023-03-23T04:59:38;10.60;90.80
47520;DHT22;33252;48.122;11.538;2023-03-23T05:02:03;10.60;90.80
47520;DHT22;33252;48.122;11.538;2023-03-23T05:04:29;10.50;90.90
47520;DHT22;33252;48.122;11.538;2023-03-23T05:06:54;10.50;90.90
47520;DHT22;33252;48.122;11.538;2023-03-23T05:09:20;10.60;90.90
47520;DHT22;33252;48.122;11.538;2023-03-23T05:11:46;10.50;91.00
47520;DHT22;33252;48.122;11.538;2023-03-23T05:14:11;10.40;91.00
47520;DHT22;33252;48.122;11.538;2023-03-23T05:16:37;10.50;91.10
47520;DHT22;33252;48.122;11.538;2023-03-23T05:19:04;10.40;91.00
47520;DHT22;33252;48.122;11.538;2023-03-23T05:21:30;10.50;91.10
47520;DHT22;33252;48.122;11.538;2023-03-23T05:23:56;10.50;91.20
47520;DHT22;33252;48.122;11.538;2023-03-23T05:26:22;10.50;91.20
47520;DHT22;33252;48.122;11.538;2023-03-23T05:28:50;10.50;91.20
47520;DHT22;33252;48.122;11.538;2023-03-23T05:31:18;10.60;91.10
47520;DHT22;33252;48.122;11.538;2023-03-23T05:33:44;10.60;91.00
47520;DHT22;33252;48.122;11.538;2023-03-23T05:36:11;10.70;90.90
47520;DHT22;33252;48.122;11.538;2023-03-23T05:38:39;10.70;91.10
47520;DHT22;33252;48.122;11.538;2023-03-23T05:41:07;10.60;91.10
47520;DHT22;33252;48.122;11.538;2023-03-23T05:43:33;10.70;91.10
47520;DHT22;33252;48.122;11.538;2023-03-23T05:45:59;10.60;91.10
47520;DHT22;33252;48.122;11.538;2023-03-23T05:48:25;10.70;91.10
47520;DHT22;33252;48.122;11.538;2023-03-23T05:50:51;10.70;91.00
47520;DHT22;33252;48.122;11.538;2023-03-23T05:53:17;10.70;91.10
47520;DHT22;33252;48.122;11.538;2023-03-23T05:55:43;10.60;91.00
47520;DHT22;33252;48.122;11.538;2023-03-23T05:58:08;10.70;91.00
47520;DHT22;33252;48.122;11.538;2023-03-23T06:00:34;10.70;90.80
47520;DHT22;33252;48.122;11.538;2023-03-23T06:03:00;10.80;90.90
47520;DHT22;33252;48.122;11.538;2023-03-23T06:05:26;10.70;90.90
47520;DHT22;33252;48.122;11.538;2023-03-23T06:07:52;10.70;91.00
47520;DHT22;33252;48.122;11.538;2023-03-23T06:10:19;10.60;91.20
47520;DHT22;33252;48.122;11.538;2023-03-23T06:12:47;10.60;91.30
47520;DHT22;33252;48.122;11.538;2023-03-23T06:15:13;10.60;91.30
47520;DHT22;33252;48.122;11.538;2023-03-23T06:17:39;10.60;91.30
47520;DHT22;33252;48.122;11.538;2023-03-23T06:20:06;10.60;91.30
47520;DHT22;33252;48.122;11.538;2023-03-23T06:22:39;10.60;91.20
47520;DHT22;33252;48.122;11.538;2023-03-23T06:25:09;10.70;91.20
47520;DHT22;33252;48.122;11.538;2023-03-23T06:27:36;10.80;91.20
47520;DHT22;33252;48.122;11.538;2023-03-23T06:30:04;10.80;91.00
47520;DHT22;33252;48.122;11.538;2023-03-23T06:32:31;10.90;90.90
47520;DHT22;33252;48.122;11.538;2023-03-23T06:34:57;10.90;90.80
47520;DHT22;33252;48.122;11.538;2023-03-23T06:37:23;10.90;90.70
47520;DHT22;33252;48.122;11.538;2023-03-23T06:39:50;10.90;90.70
47520;DHT22;33252;48.122;11.538;2023-03-23T06:42:17;10.90;90.90
47520;DHT22;33252;48.122;11.538;2023-03-23T06:44:43;11.00;90.70
47520;DHT22;33252;48.122;11.538;2023-03-23T06:47:09;11.00;90.50
47520;DHT22;33252;48.122;11.538;2023-03-23T06:49:35;11.00;90.50
47520;DHT22;33252;48.122;11.538;2023-03-23T06:52:01;11.10;90.40
47520;DHT22;33252;48.122;11.538;2023-03-23T06:54:28;11.20;90.30
47520;DHT22;33252;48.122;11.538;2023-03-23T06:56:54;11.20;90.40
47520;DHT22;33252;48.122;11.538;2023-03-23T06:59:20;11.20;90.40
47520;DHT22;33252;48.122;11.538;2023-03-23T07:01:46;11.10;90.60
47520;DHT22;33252;48.122;11.538;2023-03-23T07:04:12;11.20;90.50
47520;DHT22;33252;48.122;11.538;2023-03-23T07:06:38;11.20;90.60
47520;DHT22;33252;48.122;11.538;2023-03-23T07:09:04;11.30;90.50
47520;DHT22;33252;48.122;11.538;2023-03-23T07:11:30;11.30;90.40
47520;DHT22;33252;48.122;11.538;2023-03-23T07:13:55;11.30;90.30
47520;DHT22;33252;48.122;11.538;2023-03-23T07:16:21;11.40;90.10
47520;DHT22;33252;48.122;11.538;2023-03-23T07:18:47;11.50;90.00
47520;DHT22;33252;48.122;11.538;2023-03-23T07:21:12;11.60;89.40
47520;DHT22;33252;48.122;11.538;2023-03-23T07:23:38;11.70;89.30
47520;DHT22;33252;48.122;11.538;2023-03-23T07:26:04;11.70;89.10
47520;DHT22;33252;48.122;11.538;2023-03-23T07:28:30;11.90;88.70
47520;DHT22;33252;48.122;11.538;2023-03-23T07:30:56;12.00;88.10
47520;DHT22;33252;48.122;11.538;2023-03-23T07:33:22;12.00;87.90
47520;DHT22;33252;48.122;11.538;2023-03-23T07:35:47;12.10;87.60
47520;DHT22;33252;48.122;11.538;2023-03-23T07:38:13;12.30;87.60
47520;DHT22;33252;48.122;11.538;2023-03-23T07:40:40;12.50;86.80
47520;DHT22;33252;48.122;11.538;2023-03-23T07:43:06;12.70;86.80
47520;DHT22;33252;48.122;11.538;2023-03-23T07:45:32;12.90;86.50
47520;DHT22;33252;48.122;11.538;2023-03-23T07:47:59;13.00;85.20
47520;DHT22;33252;48.122;11.538;2023-03-23T07:50:25;13.00;85.20
47520;DHT22;33252;48.122;11.538;2023-03-23T07:52:54;13.10;85.40
47520;DHT22;33252;48.122;11.538;2023-03-23T07:55:20;13.10;84.70
47520;DHT22;33252;48.122;11.538;2023-03-23T07:57:47;13.10;84.80
47520;DHT22;33252;48.122;11.538;2023-03-23T08:00:15;13.10;84.50
47520;DHT22;33252;48.122;11.538;2023-03-23T08:02:48;13.10;84.40
47520;DHT22;33252;48.122;11.538;2023-03-23T08:05:15;13.20;84.40
47520;DHT22;33252;48.122;11.538;2023-03-23T08:07:42;13.20;84.00
47520;DHT22;33252;48.122;11.538;2023-03-23T08:10:09;13.20;83.80
47520;DHT22;33252;48.122;11.538;2023-03-23T08:12:39;13.20;84.40
47520;DHT22;33252;48.122;11.538;2023-03-23T08:15:06;13.30;83.80
47520;DHT22;33252;48.122;11.538;2023-03-23T08:17:33;13.30;83.90
47520;DHT22;33252;48.122;11.538;2023-03-23T08:20:00;13.40;83.70
47520;DHT22;33252;48.122;11.538;2023-03-23T08:22:26;13.40;83.80
47520;DHT22;33252;48.122;11.538;2023-03-23T08:24:54;13.50;83.60
47520;DHT22;33252;48.122;11.538;2023-03-23T08:27:20;13.50;82.80
47520;DHT22;33252;48.122;11.538;2023-03-23T08:29:46;13.50;83.00
47520;DHT22;33252;48.122;11.538;2023-03-23T08:32:13;13.50;82.20
47520;DHT22;33252;48.122;11.538;2023-03-23T08:34:40;13.50;82.60
47520;DHT22;33252;48.122;11.538;2023-03-23T08:37:07;13.50;81.70
47520;DHT22;33252;48.122;11.538;2023-03-23T08:39:34;13.60;82.40
47520;DHT22;33252;48.122;11.538;2023-03-23T08:42:00;13.60;81.90
47520;DHT22;33252;48.122;11.538;2023-03-23T08:44:26;13.70;82.20
47520;DHT22;33252;48.122;11.538;2023-03-23T08:46:52;13.80;81.90
47520;DHT22;33252;48.122;11.538;2023-03-23T08:49:23;13.90;82.20
47520;DHT22;33252;48.122;11.538;2023-03-23T08:51:49;14.00;81.20
47520;DHT22;33252;48.122;11.538;2023-03-23T08:54:15;14.10;80.90
47520;DHT22;33252;48.122;11.538;2023-03-23T08:56:42;14.10;80.40
47520;DHT22;33252;48.122;11.538;2023-03-23T08:59:08;14.20;80.60
47520;DHT22;33252;48.122;11.538;2023-03-23T09:01:34;14.30;80.20
47520;DHT22;33252;48.122;11.538;2023-03-23T09:04:00;14.40;79.30
47520;DHT22;33252;48.122;11.538;2023-03-23T09:06:26;14.40;79.10
47520;DHT22;33252;48.122;11.538;2023-03-23T09:08:53;14.60;79.50
47520;DHT22;33252;48.122;11.538;2023-03-23T09:11:21;14.60;79.40
47520;DHT22;33252;48.122;11.538;2023-03-23T09:13:47;14.80;78.70
47520;DHT22;33252;48.122;11.538;2023-03-23T09:16:13;14.80;79.40
47520;DHT22;33252;48.122;11.538;2023-03-23T09:18:38;14.90;78.90
47520;DHT22;33252;48.122;11.538;2023-03-23T09:21:05;14.90;78.90
47520;DHT22;33252;48.122;11.538;2023-03-23T09:23:32;15.10;79.80
47520;DHT22;33252;48.122;11.538;2023-03-23T09:26:00;15.10;78.30
47520;DHT22;33252;48.122;11.538;2023-03-23T09:28:26;15.20;78.10
47520;DHT22;33252;48.122;11.538;2023-03-23T09:30:55;15.30;78.20
47520;DHT22;33252;48.122;11.538;2023-03-23T09:33:23;15.30;78.40
47520;DHT22;33252;48.122;11.538;2023-03-23T09:35:49;15.40;78.00
47520;DHT22;33252;48.122;11.538;2023-03-23T09:38:15;15.50;77.90
47520;DHT22;33252;48.122;11.538;2023-03-23T09:49:03;15.80;77.80
47520;DHT22;33252;48.122;11.538;2023-03-23T09:54:29;16.00;76.80
47520;DHT22;33252;48.122;11.538;2023-03-23T09:56:58;16.00;76.90
47520;DHT22;33252;48.122;11.538;2023-03-23T09:59:31;16.20;76.80
47520;DHT22;33252;48.122;11.538;2023-03-23T10:02:15;16.30;76.00
47520;DHT22;33252;48.122;11.538;2023-03-23T10:04:46;16.40;75.20
47520;DHT22;33252;48.122;11.538;2023-03-23T10:07:20;16.40;75.20
47520;DHT22;33252;48.122;11.538;2023-03-23T10:09:52;16.40;77.40
47520;DHT22;33252;48.122;11.538;2023-03-23T10:15:14;16.30;77.80
47520;DHT22;33252;48.122;11.538;2023-03-23T10:20:43;16.10;77.80
47520;DHT22;33252;48.122;11.538;2023-03-23T10:23:31;16.00;76.80
47520;DHT22;33252;48.122;11.538;2023-03-23T10:28:46;15.90;77.80
47520;DHT22;33252;48.122;11.538;2023-03-23T10:31:20;15.90;77.90
47520;DHT22;33252;48.122;11.538;2023-03-23T10:33:52;15.90;77.40
47520;DHT22;33252;48.122;11.538;2023-03-23T10:36:29;15.80;77.00
47520;DHT22;33252;48.122;11.538;2023-03-23T10:39:15;15.80;77.60
47520;DHT22;33252;48.122;11.538;2023-03-23T10:41:42;15.90;77.70
47520;DHT22;33252;48.122;11.538;2023-03-23T10:44:18;16.00;77.20
47520;DHT22;33252;48.122;11.538;2023-03-23T10:46:45;16.00;76.90
47520;DHT22;33252;48.122;11.538;2023-03-23T10:49:19;16.00;79.60
47520;DHT22;33252;48.122;11.538;2023-03-23T10:51:52;16.10;76.60
47520;DHT22;33252;48.122;11.538;2023-03-23T10:54:31;16.20;76.90
47520;DHT22;33252;48.122;11.538;2023-03-23T10:56:58;16.30;73.20
47520;DHT22;33252;48.122;11.538;2023-03-23T10:59:28;16.30;73.50
47520;DHT22;33252;48.122;11.538;2023-03-23T11:01:57;16.40;73.30
47520;DHT22;33252;48.122;11.538;2023-03-23T11:04:24;16.40;72.20
47520;DHT22;33252;48.122;11.538;2023-03-23T11:06:53;16.50;71.40
47520;DHT22;33252;48.122;11.538;2023-03-23T11:09:22;16.40;71.80
47520;DHT22;33252;48.122;11.538;2023-03-23T11:11:58;16.50;72.00
47520;DHT22;33252;48.122;11.538;2023-03-23T11:14:29;16.50;72.00
47520;DHT22;33252;48.122;11.538;2023-03-23T11:17:04;16.50;72.00
47520;DHT22;33252;48.122;11.538;2023-03-23T11:19:35;16.50;72.10
47520;DHT22;33252;48.122;11.538;2023-03-23T11:24:41;16.50;72.90
47520;DHT22;33252;48.122;11.538;2023-03-23T11:27:09;16.60;73.40
47520;DHT22;33252;48.122;11.538;2023-03-23T11:29:41;16.60;73.20
47520;DHT22;33252;48.122;11.538;2023-03-23T11:32:14;16.60;72.90
47520;DHT22;33252;48.122;11.538;2023-03-23T11:34:43;16.70;73.10
47520;DHT22;33252;48.122;11.538;2023-03-23T11:42:42;16.90;73.00
47520;DHT22;33252;48.122;11.538;2023-03-23T11:45:40;16.80;72.90
47520;DHT22;33252;48.122;11.538;2023-03-23T11:51:11;16.90;72.90
47520;DHT22;33252;48.122;11.538;2023-03-23T11:56:30;16.90;72.80
47520;DHT22;33252;48.122;11.538;2023-03-23T11:58:58;16.90;71.40
47520;DHT22;33252;48.122;11.538;2023-03-23T12:01:54;16.90;72.20
47520;DHT22;33252;48.122;11.538;2023-03-23T12:04:43;17.00;72.40
47520;DHT22;33252;48.122;11.538;2023-03-23T12:10:14;17.20;71.90
47520;DHT22;33252;48.122;11.538;2023-03-23T12:13:02;17.10;71.80
47520;DHT22;33252;48.122;11.538;2023-03-23T12:15:39;17.10;71.10
47520;DHT22;33252;48.122;11.538;2023-03-23T12:18:24;17.20;71.20
47520;DHT22;33252;48.122;11.538;2023-03-23T12:23:51;17.50;71.60
47520;DHT22;33252;48.122;11.538;2023-03-23T12:26:55;17.60;71.00
47520;DHT22;33252;48.122;11.538;2023-03-23T12:29:17;17.70;70.40
47520;DHT22;33252;48.122;11.538;2023-03-23T12:42:50;17.70;69.10
47520;DHT22;33252;48.122;11.538;2023-03-23T12:48:34;17.60;69.00
47520;DHT22;33252;48.122;11.538;2023-03-23T12:51:29;17.60;69.50
47520;DHT22;33252;48.122;11.538;2023-03-23T12:56:34;17.70;69.60
47520;DHT22;33252;48.122;11.538;2023-03-23T12:59:11;17.80;70.40
47520;DHT22;33252;48.122;11.538;2023-03-23T13:01:46;17.80;68.80
47520;DHT22;33252;48.122;11.538;2023-03-23T13:04:36;17.80;67.60
47520;DHT22;33252;48.122;11.538;2023-03-23T13:07:06;17.70;67.10
47520;DHT22;33252;48.122;11.538;2023-03-23T13:12:19;17.70;66.90
47520;DHT22;33252;48.122;11.538;2023-03-23T13:23:36;17.50;67.30
47520;DHT22;33252;48.122;11.538;2023-03-23T13:26:14;17.50;67.00
47520;DHT22;33252;48.122;11.538;2023-03-23T13:31:30;17.50;67.30
47520;DHT22;33252;48.122;11.538;2023-03-23T13:34:19;17.60;67.80
47520;DHT22;33252;48.122;11.538;2023-03-23T13:37:24;17.60;67.60
47520;DHT22;33252;48.122;11.538;2023-03-23T13:42:29;17.60;68.30
47520;DHT22;33252;48.122;11.538;2023-03-23T13:45:22;17.70;69.40
47520;DHT22;33252;48.122;11.538;2023-03-23T13:47:50;17.60;70.20
47520;DHT22;33252;48.122;11.538;2023-03-23T13:50:28;17.60;70.50
47520;DHT22;33252;48.122;11.538;2023-03-23T13:53:11;17.60;70.00
47520;DHT22;33252;48.122;11.538;2023-03-23T13:55:42;17.60;70.30
47520;DHT22;33252;48.122;11.538;2023-03-23T13:58:23;17.60;71.20
47520;DHT22;33252;48.122;11.538;2023-03-23T14:03:49;17.50;72.50
47520;DHT22;33252;48.122;11.538;2023-03-23T14:06:21;17.50;73.00
47520;DHT22;33252;48.122;11.538;2023-03-23T14:08:52;17.50;72.70
47520;DHT22;33252;48.122;11.538;2023-03-23T14:11:27;17.40;72.60
47520;DHT22;33252;48.122;11.538;2023-03-23T14:16:42;17.30;73.30
47520;DHT22;33252;48.122;11.538;2023-03-23T14:19:23;17.30;73.20
47520;DHT22;33252;48.122;11.538;2023-03-23T14:21:55;17.20;72.80
47520;DHT22;33252;48.122;11.538;2023-03-23T14:24:24;17.20;72.40
47520;DHT22;33252;48.122;11.538;2023-03-23T14:30:07;17.10;72.20
47520;DHT22;33252;48.122;11.538;2023-03-23T14:32:34;17.10;72.20
47520;DHT22;33252;48.122;11.538;2023-03-23T14:35:06;17.00;72.00
47520;DHT22;33252;48.122;11.538;2023-03-23T14:37:33;17.10;71.80
47520;DHT22;33252;48.122;11.538;2023-03-23T14:40:01;17.10;72.40
47520;DHT22;33252;48.122;11.538;2023-03-23T14:42:32;17.00;72.60
47520;DHT22;33252;48.122;11.538;2023-03-23T14:45:00;17.00;72.60
47520;DHT22;33252;48.122;11.538;2023-03-23T14:47:27;17.00;73.10
47520;DHT22;33252;48.122;11.538;2023-03-23T14:49:56;17.00;73.00
47520;DHT22;33252;48.122;11.538;2023-03-23T14:52:25;16.90;73.30
47520;DHT22;33252;48.122;11.538;2023-03-23T14:54:54;17.00;73.40
47520;DHT22;33252;48.122;11.538;2023-03-23T14:59:49;16.90;73.70
47520;DHT22;33252;48.122;11.538;2023-03-23T15:02:34;16.90;73.70
47520;DHT22;33252;48.122;11.538;2023-03-23T15:05:09;16.80;73.80
47520;DHT22;33252;48.122;11.538;2023-03-23T15:07:38;16.80;74.00
47520;DHT22;33252;48.122;11.538;2023-03-23T15:10:15;16.80;74.40
47520;DHT22;33252;48.122;11.538;2023-03-23T15:12:44;16.80;73.90
47520;DHT22;33252;48.122;11.538;2023-03-23T15:15:33;16.80;73.80
47520;DHT22;33252;48.122;11.538;2023-03-23T15:18:01;16.70;74.60
47520;DHT22;33252;48.122;11.538;2023-03-23T15:20:47;16.80;74.40
47520;DHT22;33252;48.122;11.538;2023-03-23T15:23:22;16.70;74.20
47520;DHT22;33252;48.122;11.538;2023-03-23T15:25:53;16.70;74.40
47520;DHT22;33252;48.122;11.538;2023-03-23T15:28:22;16.80;74.50
47520;DHT22;33252;48.122;11.538;2023-03-23T15:30:55;16.70;75.00
47520;DHT22;33252;48.122;11.538;2023-03-23T15:33:23;16.70;75.60
47520;DHT22;33252;48.122;11.538;2023-03-23T15:35:54;16.70;75.10
47520;DHT22;33252;48.122;11.538;2023-03-23T15:38:31;16.70;75.90
47520;DHT22;33252;48.122;11.538;2023-03-23T15:40:59;16.60;75.90
47520;DHT22;33252;48.122;11.538;2023-03-23T15:43:31;16.50;76.00
47520;DHT22;33252;48.122;11.538;2023-03-23T15:46:01;16.60;76.20
47520;DHT22;33252;48.122;11.538;2023-03-23T15:51:11;16.40;77.30
47520;DHT22;33252;48.122;11.538;2023-03-23T15:53:40;16.40;77.20
47520;DHT22;33252;48.122;11.538;2023-03-23T15:56:08;16.40;77.60
47520;DHT22;33252;48.122;11.538;2023-03-23T15:58:35;16.40;77.10
47520;DHT22;33252;48.122;11.538;2023-03-23T16:01:11;16.30;77.50
47520;DHT22;33252;48.122;11.538;2023-03-23T16:03:42;16.30;77.50
47520;DHT22;33252;48.122;11.538;2023-03-23T16:06:13;16.20;77.20
47520;DHT22;33252;48.122;11.538;2023-03-23T16:08:40;16.20;77.30
47520;DHT22;33252;48.122;11.538;2023-03-23T16:11:10;16.10;78.30
47520;DHT22;33252;48.122;11.538;2023-03-23T16:13:35;16.00;78.90
47520;DHT22;33252;48.122;11.538;2023-03-23T16:16:02;16.00;79.30
47520;DHT22;33252;48.122;11.538;2023-03-23T16:18:29;16.00;79.00
47520;DHT22;33252;48.122;11.538;2023-03-23T16:20:56;16.00;79.30
47520;DHT22;33252;48.122;11.538;2023-03-23T16:23:22;16.00;79.50
47520;DHT22;33252;48.122;11.538;2023-03-23T16:25:48;15.90;79.50
47520;DHT22;33252;48.122;11.538;2023-03-23T16:28:14;15.90;80.20
47520;DHT22;33252;48.122;11.538;2023-03-23T16:30:41;15.90;80.60
47520;DHT22;33252;48.122;11.538;2023-03-23T16:33:07;15.80;81.10
47520;DHT22;33252;48.122;11.538;2023-03-23T16:35:34;15.70;82.70
47520;DHT22;33252;48.122;11.538;2023-03-23T16:38:00;15.70;83.70
47520;DHT22;33252;48.122;11.538;2023-03-23T16:40:26;15.70;83.30
47520;DHT22;33252;48.122;11.538;2023-03-23T16:42:53;15.60;84.00
47520;DHT22;33252;48.122;11.538;2023-03-23T16:45:19;15.60;83.90
47520;DHT22;33252;48.122;11.538;2023-03-23T16:47:45;15.50;85.70
47520;DHT22;33252;48.122;11.538;2023-03-23T16:50:13;15.50;85.50
47520;DHT22;33252;48.122;11.538;2023-03-23T16:52:40;15.40;87.50
47520;DHT22;33252;48.122;11.538;2023-03-23T16:55:07;15.40;87.90
47520;DHT22;33252;48.122;11.538;2023-03-23T16:57:35;15.40;87.60
47520;DHT22;33252;48.122;11.538;2023-03-23T17:00:04;15.40;90.70
47520;DHT22;33252;48.122;11.538;2023-03-23T17:02:31;15.30;87.20
47520;DHT22;33252;48.122;11.538;2023-03-23T17:04:56;15.30;88.60
47520;DHT22;33252;48.122;11.538;2023-03-23T17:07:23;15.30;90.90
47520;DHT22;33252;48.122;11.538;2023-03-23T17:09:48;15.20;90.30
47520;DHT22;33252;48.122;11.538;2023-03-23T17:12:14;15.20;89.10
47520;DHT22;33252;48.122;11.538;2023-03-23T17:14:40;15.20;89.30
47520;DHT22;33252;48.122;11.538;2023-03-23T17:17:06;15.20;89.70